sensor_id;sensor_type;location;lat;lon;timestamp;P1;durP1;ratioP1;P2;durP2;ratioP2
64208;SDS011;50527;52.414;13.226;2023-11-21T00:00:08;0.75;;;0.22;;
64208;SDS011;50527;52.414;13.226;2023-11-21T00:02:37;0.93;;;0.22;;
64208;SDS011;50527;52.414;13.226;2023-11-21T00:05:05;0.73;;;0.25;;
64208;SDS011;50527;52.414;13.226;2023-11-21T00:07:33;2.85;;;0.40;;
64208;SDS011;50527;52.414;13.226;2023-11-21T00:09:58;2.00;;;0.30;;
64208;SDS011;50527;52.414;13.226;2023-11-21T00:12:24;0.47;;;0.10;;
64208;SDS011;50527;52.414;13.226;2023-11-21T00:14:49;0.52;;;0.20;;
64208;SDS011;50527;52.414;13.226;2023-11-21T00:17:15;1.23;;;0.00;;
64208;SDS011;50527;52.414;13.226;2023-11-21T00:19:40;0.15;;;0.10;;
64208;SDS011;50527;52.414;13.226;2023-11-21T00:22:07;1.33;;;0.40;;
64208;SDS011;50527;52.414;13.226;2023-11-21T00:24:34;0.55;;;0.17;;
64208;SDS011;50527;52.414;13.226;2023-11-21T00:26:59;0.57;;;0.20;;
64208;SDS011;50527;52.414;13.226;2023-11-21T00:29:25;0.63;;;0.30;;
64208;SDS011;50527;52.414;13.226;2023-11-21T00:31:50;0.47;;;0.28;;
64208;SDS011;50527;52.414;13.226;2023-11-21T00:34:17;1.75;;;0.30;;
64208;SDS011;50527;52.414;13.226;2023-11-21T00:36:42;1.02;;;0.43;;
64208;SDS011;50527;52.414;13.226;2023-11-21T00:39:08;1.00;;;0.60;;
64208;SDS011;50527;52.414;13.226;2023-11-21T00:41:33;1.60;;;0.95;;
64208;SDS011;50527;52.414;13.226;2023-11-21T00:44:00;1.88;;;0.90;;
64208;SDS011;50527;52.414;13.226;2023-11-21T00:46:25;2.53;;;1.10;;
64208;SDS011;50527;52.414;13.226;2023-11-21T00:48:54;2.70;;;1.10;;
64208;SDS011;50527;52.414;13.226;2023-11-21T00:51:20;4.25;;;1.30;;
64208;SDS011;50527;52.414;13.226;2023-11-21T00:53:47;2.90;;;1.50;;
64208;SDS011;50527;52.414;13.226;2023-11-21T00:56:12;6.10;;;1.83;;
64208;SDS011;50527;52.414;13.226;2023-11-21T00:58:38;5.07;;;2.13;;
64208;SDS011;50527;52.414;13.226;2023-11-21T01:01:07;4.30;;;1.85;;
64208;SDS011;50527;52.414;13.226;2023-11-21T01:03:33;4.90;;;2.22;;
64208;SDS011;50527;52.414;13.226;2023-11-21T01:05:58;7.18;;;2.50;;
64208;SDS011;50527;52.414;13.226;2023-11-21T01:08:24;6.32;;;2.42;;
64208;SDS011;50527;52.414;13.226;2023-11-21T01:10:49;4.55;;;1.65;;
64208;SDS011;50527;52.414;13.226;2023-11-21T01:13:15;8.25;;;2.83;;
64208;SDS011;50527;52.414;13.226;2023-11-21T01:15:40;7.55;;;2.42;;
64208;SDS011;50527;52.414;13.226;2023-11-21T01:18:07;9.57;;;2.58;;
64208;SDS011;50527;52.414;13.226;2023-11-21T01:20:33;8.80;;;3.22;;
64208;SDS011;50527;52.414;13.226;2023-11-21T01:22:59;9.10;;;2.92;;
64208;SDS011;50527;52.414;13.226;2023-11-21T01:25:24;6.93;;;2.42;;
64208;SDS011;50527;52.414;13.226;2023-11-21T01:27:50;9.35;;;3.45;;
64208;SDS011;50527;52.414;13.226;2023-11-21T01:30:16;12.80;;;2.85;;
64208;SDS011;50527;52.414;13.226;2023-11-21T01:32:42;12.95;;;3.22;;
64208;SDS011;50527;52.414;13.226;2023-11-21T01:35:08;11.23;;;2.85;;
64208;SDS011;50527;52.414;13.226;2023-11-21T01:37:35;12.18;;;3.38;;
64208;SDS011;50527;52.414;13.226;2023-11-21T01:40:01;13.05;;;3.33;;
64208;SDS011;50527;52.414;13.226;2023-11-21T01:42:30;13.18;;;3.97;;
64208;SDS011;50527;52.414;13.226;2023-11-21T01:44:55;10.00;;;3.88;;
64208;SDS011;50527;52.414;13.226;2023-11-21T01:47:21;13.65;;;3.55;;
64208;SDS011;50527;52.414;13.226;2023-11-21T01:49:46;11.23;;;3.88;;
64208;SDS011;50527;52.414;13.226;2023-11-21T01:52:12;15.93;;;3.72;;
64208;SDS011;50527;52.414;13.226;2023-11-21T01:54:38;13.15;;;4.20;;
64208;SDS011;50527;52.414;13.226;2023-11-21T01:57:04;11.90;;;3.47;;
64208;SDS011;50527;52.414;13.226;2023-11-21T01:59:38;15.95;;;4.22;;
64208;SDS011;50527;52.414;13.226;2023-11-21T02:02:06;16.58;;;4.45;;
64208;SDS011;50527;52.414;13.226;2023-11-21T02:04:32;14.98;;;4.20;;
64208;SDS011;50527;52.414;13.226;2023-11-21T02:06:59;11.02;;;3.20;;
64208;SDS011;50527;52.414;13.226;2023-11-21T02:09:25;12.13;;;3.38;;
64208;SDS011;50527;52.414;13.226;2023-11-21T02:11:52;14.32;;;3.50;;
64208;SDS011;50527;52.414;13.226;2023-11-21T02:14:19;16.83;;;4.38;;
64208;SDS011;50527;52.414;13.226;2023-11-21T02:16:47;13.73;;;3.50;;
64208;SDS011;50527;52.414;13.226;2023-11-21T02:19:14;16.88;;;3.53;;
64208;SDS011;50527;52.414;13.226;2023-11-21T02:21:47;8.57;;;2.95;;
64208;SDS011;50527;52.414;13.226;2023-11-21T02:24:14;13.30;;;3.42;;
64208;SDS011;50527;52.414;13.226;2023-11-21T02:26:42;11.52;;;2.88;;
64208;SDS011;50527;52.414;13.226;2023-11-21T02:29:07;10.80;;;2.78;;
64208;SDS011;50527;52.414;13.226;2023-11-21T02:31:36;11.70;;;3.15;;
64208;SDS011;50527;52.414;13.226;2023-11-21T02:34:10;12.18;;;2.60;;
64208;SDS011;50527;52.414;13.226;2023-11-21T02:36:38;19.92;;;2.92;;
64208;SDS011;50527;52.414;13.226;2023-11-21T02:39:03;12.60;;;3.40;;
64208;SDS011;50527;52.414;13.226;2023-11-21T02:41:29;10.07;;;3.08;;
64208;SDS011;50527;52.414;13.226;2023-11-21T02:43:54;8.95;;;2.60;;
64208;SDS011;50527;52.414;13.226;2023-11-21T02:46:20;12.35;;;2.78;;
64208;SDS011;50527;52.414;13.226;2023-11-21T02:48:45;6.43;;;2.95;;
64208;SDS011;50527;52.414;13.226;2023-11-21T02:51:11;12.45;;;2.83;;
64208;SDS011;50527;52.414;13.226;2023-11-21T02:53:39;11.77;;;2.47;;
64208;SDS011;50527;52.414;13.226;2023-11-21T02:56:05;9.20;;;2.78;;
64208;SDS011;50527;52.414;13.226;2023-11-21T02:58:31;8.45;;;2.15;;
64208;SDS011;50527;52.414;13.226;2023-11-21T03:00:56;9.23;;;1.98;;
64208;SDS011;50527;52.414;13.226;2023-11-21T03:03:21;6.90;;;1.88;;
64208;SDS011;50527;52.414;13.226;2023-11-21T03:05:49;8.55;;;2.10;;
64208;SDS011;50527;52.414;13.226;2023-11-21T03:08:15;6.70;;;1.92;;
64208;SDS011;50527;52.414;13.226;2023-11-21T03:10:40;3.95;;;1.45;;
64208;SDS011;50527;52.414;13.226;2023-11-21T03:13:06;4.63;;;1.67;;
64208;SDS011;50527;52.414;13.226;2023-11-21T03:15:31;9.25;;;2.03;;
64208;SDS011;50527;52.414;13.226;2023-11-21T03:17:57;5.75;;;1.92;;
64208;SDS011;50527;52.414;13.226;2023-11-21T03:23:45;3.75;;;1.48;;
64208;SDS011;50527;52.414;13.226;2023-11-21T03:26:13;4.72;;;1.60;;
64208;SDS011;50527;52.414;13.226;2023-11-21T03:28:39;5.70;;;1.67;;
64208;SDS011;50527;52.414;13.226;2023-11-21T03:31:04;4.65;;;1.52;;
64208;SDS011;50527;52.414;13.226;2023-11-21T03:33:31;4.55;;;1.38;;
64208;SDS011;50527;52.414;13.226;2023-11-21T03:35:57;5.32;;;1.75;;
64208;SDS011;50527;52.414;13.226;2023-11-21T03:38:23;5.22;;;1.65;;
64208;SDS011;50527;52.414;13.226;2023-11-21T03:40:48;4.50;;;1.70;;
64208;SDS011;50527;52.414;13.226;2023-11-21T03:43:14;6.63;;;1.77;;
64208;SDS011;50527;52.414;13.226;2023-11-21T03:45:39;4.72;;;1.52;;
64208;SDS011;50527;52.414;13.226;2023-11-21T03:48:05;4.57;;;1.85;;
64208;SDS011;50527;52.414;13.226;2023-11-21T03:50:31;9.07;;;1.65;;
64208;SDS011;50527;52.414;13.226;2023-11-21T03:52:57;5.57;;;2.15;;
64208;SDS011;50527;52.414;13.226;2023-11-21T03:55:22;4.68;;;1.80;;
64208;SDS011;50527;52.414;13.226;2023-11-21T03:57:49;3.45;;;1.50;;
64208;SDS011;50527;52.414;13.226;2023-11-21T04:00:16;3.60;;;1.60;;
64208;SDS011;50527;52.414;13.226;2023-11-21T04:02:42;3.92;;;1.73;;
64208;SDS011;50527;52.414;13.226;2023-11-21T04:05:07;5.07;;;1.95;;
64208;SDS011;50527;52.414;13.226;2023-11-21T04:07:34;3.95;;;1.70;;
64208;SDS011;50527;52.414;13.226;2023-11-21T04:10:00;4.53;;;1.85;;
64208;SDS011;50527;52.414;13.226;2023-11-21T04:12:25;4.53;;;1.27;;
64208;SDS011;50527;52.414;13.226;2023-11-21T04:14:51;8.20;;;2.03;;
64208;SDS011;50527;52.414;13.226;2023-11-21T04:17:19;3.67;;;1.67;;
64208;SDS011;50527;52.414;13.226;2023-11-21T04:19:45;3.90;;;1.60;;
64208;SDS011;50527;52.414;13.226;2023-11-21T04:22:11;4.05;;;1.65;;
64208;SDS011;50527;52.414;13.226;2023-11-21T04:24:36;5.13;;;1.90;;
64208;SDS011;50527;52.414;13.226;2023-11-21T04:27:02;3.38;;;1.50;;
64208;SDS011;50527;52.414;13.226;2023-11-21T04:29:27;4.20;;;1.92;;
64208;SDS011;50527;52.414;13.226;2023-11-21T04:31:53;6.78;;;1.80;;
64208;SDS011;50527;52.414;13.226;2023-11-21T04:34:19;6.05;;;1.80;;
64208;SDS011;50527;52.414;13.226;2023-11-21T04:36:44;5.95;;;2.00;;
64208;SDS011;50527;52.414;13.226;2023-11-21T04:39:10;4.45;;;1.58;;
64208;SDS011;50527;52.414;13.226;2023-11-21T04:41:36;4.47;;;1.55;;
64208;SDS011;50527;52.414;13.226;2023-11-21T04:44:04;3.28;;;1.55;;
64208;SDS011;50527;52.414;13.226;2023-11-21T04:46:32;6.85;;;1.90;;
64208;SDS011;50527;52.414;13.226;2023-11-21T04:48:58;6.95;;;1.70;;
64208;SDS011;50527;52.414;13.226;2023-11-21T04:51:23;3.92;;;1.70;;
64208;SDS011;50527;52.414;13.226;2023-11-21T04:53:49;5.03;;;1.73;;
64208;SDS011;50527;52.414;13.226;2023-11-21T04:56:15;3.95;;;1.70;;
64208;SDS011;50527;52.414;13.226;2023-11-21T04:58:41;2.80;;;1.40;;
64208;SDS011;50527;52.414;13.226;2023-11-21T05:01:09;3.25;;;1.33;;
64208;SDS011;50527;52.414;13.226;2023-11-21T05:03:35;3.92;;;1.55;;
64208;SDS011;50527;52.414;13.226;2023-11-21T05:06:00;3.53;;;1.52;;
64208;SDS011;50527;52.414;13.226;2023-11-21T05:08:26;4.65;;;1.55;;
64208;SDS011;50527;52.414;13.226;2023-11-21T05:10:52;3.92;;;1.50;;
64208;SDS011;50527;52.414;13.226;2023-11-21T05:13:18;4.28;;;1.50;;
64208;SDS011;50527;52.414;13.226;2023-11-21T05:15:45;5.03;;;1.70;;
64208;SDS011;50527;52.414;13.226;2023-11-21T05:18:10;3.13;;;1.50;;
64208;SDS011;50527;52.414;13.226;2023-11-21T05:20:36;2.72;;;1.23;;
64208;SDS011;50527;52.414;13.226;2023-11-21T05:23:03;4.43;;;1.65;;
64208;SDS011;50527;52.414;13.226;2023-11-21T05:25:28;2.58;;;1.35;;
64208;SDS011;50527;52.414;13.226;2023-11-21T05:27:54;2.55;;;1.33;;
64208;SDS011;50527;52.414;13.226;2023-11-21T05:30:21;3.75;;;1.40;;
64208;SDS011;50527;52.414;13.226;2023-11-21T05:32:47;3.28;;;1.08;;
64208;SDS011;50527;52.414;13.226;2023-11-21T05:35:14;4.07;;;1.63;;
64208;SDS011;50527;52.414;13.226;2023-11-21T05:37:43;3.10;;;1.20;;
64208;SDS011;50527;52.414;13.226;2023-11-21T05:40:10;2.90;;;1.13;;
64208;SDS011;50527;52.414;13.226;2023-11-21T05:42:36;4.25;;;1.20;;
64208;SDS011;50527;52.414;13.226;2023-11-21T05:45:03;3.15;;;1.25;;
64208;SDS011;50527;52.414;13.226;2023-11-21T05:47:36;3.10;;;1.33;;
64208;SDS011;50527;52.414;13.226;2023-11-21T05:50:04;4.25;;;1.60;;
64208;SDS011;50527;52.414;13.226;2023-11-21T05:52:30;5.50;;;1.60;;
64208;SDS011;50527;52.414;13.226;2023-11-21T05:54:57;4.63;;;1.42;;
64208;SDS011;50527;52.414;13.226;2023-11-21T05:57:23;6.32;;;1.40;;
64208;SDS011;50527;52.414;13.226;2023-11-21T05:59:48;3.83;;;1.45;;
64208;SDS011;50527;52.414;13.226;2023-11-21T06:02:14;3.97;;;1.33;;
64208;SDS011;50527;52.414;13.226;2023-11-21T06:04:39;5.13;;;1.77;;
64208;SDS011;50527;52.414;13.226;2023-11-21T06:07:05;6.13;;;1.90;;
64208;SDS011;50527;52.414;13.226;2023-11-21T06:09:30;5.20;;;1.70;;
64208;SDS011;50527;52.414;13.226;2023-11-21T06:11:56;3.80;;;1.50;;
64208;SDS011;50527;52.414;13.226;2023-11-21T06:14:21;4.45;;;2.10;;
64208;SDS011;50527;52.414;13.226;2023-11-21T06:16:47;5.28;;;1.58;;
64208;SDS011;50527;52.414;13.226;2023-11-21T06:19:12;4.80;;;1.80;;
64208;SDS011;50527;52.414;13.226;2023-11-21T06:21:38;4.95;;;1.80;;
64208;SDS011;50527;52.414;13.226;2023-11-21T06:24:03;4.45;;;1.92;;
64208;SDS011;50527;52.414;13.226;2023-11-21T06:26:29;7.07;;;1.88;;
64208;SDS011;50527;52.414;13.226;2023-11-21T06:28:56;3.28;;;1.20;;
64208;SDS011;50527;52.414;13.226;2023-11-21T06:31:22;5.20;;;1.50;;
64208;SDS011;50527;52.414;13.226;2023-11-21T06:33:47;2.63;;;1.23;;
64208;SDS011;50527;52.414;13.226;2023-11-21T06:36:13;4.75;;;1.33;;
64208;SDS011;50527;52.414;13.226;2023-11-21T06:38:39;3.53;;;1.40;;
64208;SDS011;50527;52.414;13.226;2023-11-21T06:41:04;3.20;;;1.38;;
64208;SDS011;50527;52.414;13.226;2023-11-21T06:43:30;4.38;;;1.33;;
64208;SDS011;50527;52.414;13.226;2023-11-21T06:45:56;2.72;;;1.10;;
64208;SDS011;50527;52.414;13.226;2023-11-21T06:48:22;3.45;;;1.33;;
64208;SDS011;50527;52.414;13.226;2023-11-21T06:50:47;12.57;;;1.80;;
64208;SDS011;50527;52.414;13.226;2023-11-21T06:53:13;4.45;;;1.30;;
64208;SDS011;50527;52.414;13.226;2023-11-21T06:55:38;2.83;;;1.25;;
64208;SDS011;50527;52.414;13.226;2023-11-21T06:58:04;2.78;;;1.20;;
64208;SDS011;50527;52.414;13.226;2023-11-21T07:00:30;3.15;;;1.33;;
64208;SDS011;50527;52.414;13.226;2023-11-21T07:02:55;2.15;;;0.90;;
64208;SDS011;50527;52.414;13.226;2023-11-21T07:05:21;2.50;;;0.98;;
64208;SDS011;50527;52.414;13.226;2023-11-21T07:07:47;2.78;;;1.05;;
64208;SDS011;50527;52.414;13.226;2023-11-21T07:10:14;1.80;;;0.85;;
64208;SDS011;50527;52.414;13.226;2023-11-21T07:12:39;1.55;;;0.85;;
64208;SDS011;50527;52.414;13.226;2023-11-21T07:15:05;2.42;;;0.90;;
64208;SDS011;50527;52.414;13.226;2023-11-21T07:17:34;2.55;;;1.00;;
64208;SDS011;50527;52.414;13.226;2023-11-21T07:20:00;2.80;;;1.20;;
64208;SDS011;50527;52.414;13.226;2023-11-21T07:22:26;3.60;;;0.85;;
64208;SDS011;50527;52.414;13.226;2023-11-21T07:24:52;2.42;;;1.02;;
64208;SDS011;50527;52.414;13.226;2023-11-21T07:27:17;3.28;;;1.02;;
64208;SDS011;50527;52.414;13.226;2023-11-21T07:29:43;2.17;;;0.90;;
64208;SDS011;50527;52.414;13.226;2023-11-21T07:32:09;1.95;;;0.90;;
64208;SDS011;50527;52.414;13.226;2023-11-21T07:34:34;2.13;;;1.10;;
64208;SDS011;50527;52.414;13.226;2023-11-21T07:37:01;1.95;;;0.95;;
64208;SDS011;50527;52.414;13.226;2023-11-21T07:39:26;2.00;;;1.00;;
64208;SDS011;50527;52.414;13.226;2023-11-21T07:41:52;2.25;;;0.98;;
64208;SDS011;50527;52.414;13.226;2023-11-21T07:44:17;2.72;;;0.73;;
64208;SDS011;50527;52.414;13.226;2023-11-21T07:46:44;2.72;;;0.88;;
64208;SDS011;50527;52.414;13.226;2023-11-21T07:49:10;4.10;;;0.95;;
64208;SDS011;50527;52.414;13.226;2023-11-21T07:51:36;1.08;;;0.68;;
64208;SDS011;50527;52.414;13.226;2023-11-21T07:54:01;7.03;;;0.93;;
64208;SDS011;50527;52.414;13.226;2023-11-21T07:56:26;3.35;;;0.95;;
64208;SDS011;50527;52.414;13.226;2023-11-21T07:58:52;1.88;;;0.82;;
64208;SDS011;50527;52.414;13.226;2023-11-21T08:01:17;3.88;;;0.88;;
64208;SDS011;50527;52.414;13.226;2023-11-21T08:03:43;1.40;;;0.63;;
64208;SDS011;50527;52.414;13.226;2023-11-21T08:06:09;2.08;;;0.90;;
64208;SDS011;50527;52.414;13.226;2023-11-21T08:08:35;1.35;;;0.70;;
64208;SDS011;50527;52.414;13.226;2023-11-21T08:11:00;2.33;;;0.85;;
64208;SDS011;50527;52.414;13.226;2023-11-21T08:13:27;1.25;;;0.50;;
64208;SDS011;50527;52.414;13.226;2023-11-21T08:15:54;3.00;;;0.60;;
64208;SDS011;50527;52.414;13.226;2023-11-21T08:18:20;1.95;;;0.70;;
64208;SDS011;50527;52.414;13.226;2023-11-21T08:20:46;2.50;;;0.80;;
64208;SDS011;50527;52.414;13.226;2023-11-21T08:23:15;1.98;;;0.70;;
64208;SDS011;50527;52.414;13.226;2023-11-21T08:25:44;2.65;;;0.93;;
64208;SDS011;50527;52.414;13.226;2023-11-21T08:28:10;1.98;;;0.70;;
64208;SDS011;50527;52.414;13.226;2023-11-21T08:30:36;2.67;;;0.80;;
64208;SDS011;50527;52.414;13.226;2023-11-21T08:33:01;1.45;;;0.75;;
64208;SDS011;50527;52.414;13.226;2023-11-21T08:35:28;1.40;;;0.60;;
64208;SDS011;50527;52.414;13.226;2023-11-21T08:37:54;3.45;;;0.80;;
64208;SDS011;50527;52.414;13.226;2023-11-21T08:40:19;1.85;;;0.70;;
64208;SDS011;50527;52.414;13.226;2023-11-21T08:42:46;1.60;;;0.70;;
64208;SDS011;50527;52.414;13.226;2023-11-21T08:45:12;1.92;;;0.73;;
64208;SDS011;50527;52.414;13.226;2023-11-21T08:47:38;3.28;;;0.98;;
64208;SDS011;50527;52.414;13.226;2023-11-21T08:50:04;2.75;;;1.00;;
64208;SDS011;50527;52.414;13.226;2023-11-21T08:52:32;2.78;;;0.90;;
64208;SDS011;50527;52.414;13.226;2023-11-21T08:54:58;0.95;;;0.60;;
64208;SDS011;50527;52.414;13.226;2023-11-21T08:57:27;2.00;;;0.65;;
64208;SDS011;50527;52.414;13.226;2023-11-21T08:59:53;1.33;;;0.52;;
64208;SDS011;50527;52.414;13.226;2023-11-21T09:02:21;1.95;;;0.85;;
64208;SDS011;50527;52.414;13.226;2023-11-21T09:04:48;1.90;;;0.93;;
64208;SDS011;50527;52.414;13.226;2023-11-21T09:07:14;1.70;;;0.93;;
64208;SDS011;50527;52.414;13.226;2023-11-21T09:09:39;2.33;;;0.90;;
64208;SDS011;50527;52.414;13.226;2023-11-21T09:12:05;3.65;;;0.93;;
64208;SDS011;50527;52.414;13.226;2023-11-21T09:14:30;3.40;;;0.85;;
64208;SDS011;50527;52.414;13.226;2023-11-21T09:16:56;1.92;;;0.90;;
64208;SDS011;50527;52.414;13.226;2023-11-21T09:19:21;2.22;;;1.00;;
64208;SDS011;50527;52.414;13.226;2023-11-21T09:21:47;2.90;;;0.95;;
64208;SDS011;50527;52.414;13.226;2023-11-21T09:24:12;1.23;;;0.60;;
64208;SDS011;50527;52.414;13.226;2023-11-21T09:26:38;3.00;;;1.27;;
64208;SDS011;50527;52.414;13.226;2023-11-21T09:29:03;2.30;;;1.25;;
64208;SDS011;50527;52.414;13.226;2023-11-21T09:31:29;3.10;;;1.05;;
64208;SDS011;50527;52.414;13.226;2023-11-21T09:33:56;3.30;;;1.10;;
64208;SDS011;50527;52.414;13.226;2023-11-21T09:36:22;2.22;;;0.60;;
64208;SDS011;50527;52.414;13.226;2023-11-21T09:38:52;2.08;;;0.70;;
64208;SDS011;50527;52.414;13.226;2023-11-21T09:41:23;6.10;;;1.00;;
64208;SDS011;50527;52.414;13.226;2023-11-21T09:44:00;1.90;;;0.80;;
64208;SDS011;50527;52.414;13.226;2023-11-21T09:46:29;1.85;;;0.73;;
64208;SDS011;50527;52.414;13.226;2023-11-21T09:48:55;2.83;;;0.80;;
64208;SDS011;50527;52.414;13.226;2023-11-21T09:51:25;1.48;;;0.68;;
64208;SDS011;50527;52.414;13.226;2023-11-21T09:53:55;6.50;;;1.05;;
64208;SDS011;50527;52.414;13.226;2023-11-21T09:56:24;1.05;;;0.63;;
64208;SDS011;50527;52.414;13.226;2023-11-21T09:58:52;3.22;;;0.95;;
64208;SDS011;50527;52.414;13.226;2023-11-21T10:01:18;1.75;;;0.60;;
64208;SDS011;50527;52.414;13.226;2023-11-21T10:03:45;3.80;;;0.70;;
64208;SDS011;50527;52.414;13.226;2023-11-21T10:06:12;3.47;;;0.63;;
64208;SDS011;50527;52.414;13.226;2023-11-21T10:08:39;2.60;;;0.98;;
64208;SDS011;50527;52.414;13.226;2023-11-21T10:11:05;1.63;;;0.75;;
64208;SDS011;50527;52.414;13.226;2023-11-21T10:13:33;3.83;;;1.00;;
64208;SDS011;50527;52.414;13.226;2023-11-21T10:15:59;2.55;;;0.70;;
64208;SDS011;50527;52.414;13.226;2023-11-21T10:18:30;1.65;;;0.52;;
64208;SDS011;50527;52.414;13.226;2023-11-21T10:20:59;4.43;;;0.90;;
64208;SDS011;50527;52.414;13.226;2023-11-21T10:23:24;1.77;;;0.70;;
64208;SDS011;50527;52.414;13.226;2023-11-21T10:25:51;3.42;;;0.88;;
64208;SDS011;50527;52.414;13.226;2023-11-21T10:28:17;5.70;;;1.00;;
64208;SDS011;50527;52.414;13.226;2023-11-21T10:30:42;4.82;;;1.23;;
64208;SDS011;50527;52.414;13.226;2023-11-21T10:33:09;4.03;;;1.05;;
64208;SDS011;50527;52.414;13.226;2023-11-21T10:35:42;5.68;;;1.33;;
64208;SDS011;50527;52.414;13.226;2023-11-21T10:38:15;4.25;;;1.38;;
64208;SDS011;50527;52.414;13.226;2023-11-21T10:40:41;4.55;;;1.48;;
64208;SDS011;50527;52.414;13.226;2023-11-21T10:43:09;5.80;;;1.10;;
64208;SDS011;50527;52.414;13.226;2023-11-21T10:45:37;11.30;;;1.25;;
64208;SDS011;50527;52.414;13.226;2023-11-21T10:48:05;5.57;;;1.42;;
64208;SDS011;50527;52.414;13.226;2023-11-21T10:50:40;5.70;;;1.45;;
64208;SDS011;50527;52.414;13.226;2023-11-21T10:53:06;5.50;;;0.93;;
64208;SDS011;50527;52.414;13.226;2023-11-21T10:55:32;7.00;;;1.48;;
64208;SDS011;50527;52.414;13.226;2023-11-21T10:58:00;4.40;;;1.27;;
64208;SDS011;50527;52.414;13.226;2023-11-21T11:00:27;2.35;;;1.00;;
64208;SDS011;50527;52.414;13.226;2023-11-21T11:02:54;5.18;;;1.70;;
64208;SDS011;50527;52.414;13.226;2023-11-21T11:05:21;5.60;;;1.23;;
64208;SDS011;50527;52.414;13.226;2023-11-21T11:07:50;6.32;;;2.50;;
64208;SDS011;50527;52.414;13.226;2023-11-21T11:10:24;13.32;;;5.40;;
64208;SDS011;50527;52.414;13.226;2023-11-21T11:12:52;7.05;;;2.05;;
64208;SDS011;50527;52.414;13.226;2023-11-21T11:15:19;8.13;;;1.42;;
64208;SDS011;50527;52.414;13.226;2023-11-21T11:17:45;5.32;;;1.05;;
64208;SDS011;50527;52.414;13.226;2023-11-21T11:20:12;1.52;;;0.70;;
64208;SDS011;50527;52.414;13.226;2023-11-21T11:22:50;2.28;;;1.05;;
64208;SDS011;50527;52.414;13.226;2023-11-21T11:28:27;3.00;;;0.90;;
64208;SDS011;50527;52.414;13.226;2023-11-21T11:34:17;4.47;;;0.90;;
64208;SDS011;50527;52.414;13.226;2023-11-21T11:37:20;2.78;;;0.93;;
64208;SDS011;50527;52.414;13.226;2023-11-21T11:39:47;5.38;;;1.10;;
64208;SDS011;50527;52.414;13.226;2023-11-21T11:42:15;3.92;;;1.10;;
64208;SDS011;50527;52.414;13.226;2023-11-21T11:47:21;5.35;;;1.40;;
64208;SDS011;50527;52.414;13.226;2023-11-21T11:49:56;1.58;;;0.90;;
64208;SDS011;50527;52.414;13.226;2023-11-21T11:52:47;2.83;;;1.10;;
64208;SDS011;50527;52.414;13.226;2023-11-21T11:55:19;3.40;;;0.98;;
64208;SDS011;50527;52.414;13.226;2023-11-21T11:57:49;4.07;;;1.45;;
64208;SDS011;50527;52.414;13.226;2023-11-21T12:00:19;4.57;;;1.27;;
64208;SDS011;50527;52.414;13.226;2023-11-21T12:02:53;2.50;;;0.85;;
64208;SDS011;50527;52.414;13.226;2023-11-21T12:05:21;2.65;;;0.95;;
64208;SDS011;50527;52.414;13.226;2023-11-21T12:10:38;2.63;;;0.75;;
64208;SDS011;50527;52.414;13.226;2023-11-21T12:13:05;4.20;;;1.10;;
64208;SDS011;50527;52.414;13.226;2023-11-21T12:15:37;3.87;;;0.80;;
64208;SDS011;50527;52.414;13.226;2023-11-21T12:18:03;1.10;;;0.52;;
64208;SDS011;50527;52.414;13.226;2023-11-21T12:20:30;2.45;;;0.90;;
64208;SDS011;50527;52.414;13.226;2023-11-21T12:22:57;3.42;;;0.57;;
64208;SDS011;50527;52.414;13.226;2023-11-21T12:25:30;2.63;;;0.70;;
64208;SDS011;50527;52.414;13.226;2023-11-21T12:28:01;2.38;;;0.70;;
64208;SDS011;50527;52.414;13.226;2023-11-21T12:30:31;2.88;;;0.98;;
64208;SDS011;50527;52.414;13.226;2023-11-21T12:33:00;2.13;;;0.70;;
64208;SDS011;50527;52.414;13.226;2023-11-21T12:35:27;1.95;;;0.68;;
64208;SDS011;50527;52.414;13.226;2023-11-21T12:37:55;2.40;;;0.52;;
64208;SDS011;50527;52.414;13.226;2023-11-21T12:40:24;2.78;;;0.93;;
64208;SDS011;50527;52.414;13.226;2023-11-21T12:42:57;2.72;;;0.60;;
64208;SDS011;50527;52.414;13.226;2023-11-21T12:47:51;1.40;;;0.52;;
64208;SDS011;50527;52.414;13.226;2023-11-21T12:50:29;2.15;;;0.70;;
64208;SDS011;50527;52.414;13.226;2023-11-21T12:52:59;2.92;;;0.70;;
64208;SDS011;50527;52.414;13.226;2023-11-21T12:55:29;1.25;;;0.47;;
64208;SDS011;50527;52.414;13.226;2023-11-21T12:58:01;3.55;;;0.68;;
64208;SDS011;50527;52.414;13.226;2023-11-21T13:00:42;1.73;;;0.80;;
64208;SDS011;50527;52.414;13.226;2023-11-21T13:03:11;1.67;;;0.80;;
64208;SDS011;50527;52.414;13.226;2023-11-21T13:05:41;1.23;;;0.40;;
64208;SDS011;50527;52.414;13.226;2023-11-21T13:08:10;1.80;;;0.70;;
64208;SDS011;50527;52.414;13.226;2023-11-21T13:10:43;2.25;;;0.50;;
64208;SDS011;50527;52.414;13.226;2023-11-21T13:13:12;0.68;;;0.38;;
64208;SDS011;50527;52.414;13.226;2023-11-21T13:15:49;1.67;;;0.55;;
64208;SDS011;50527;52.414;13.226;2023-11-21T13:18:25;0.70;;;0.45;;
64208;SDS011;50527;52.414;13.226;2023-11-21T13:20:52;2.58;;;0.73;;
64208;SDS011;50527;52.414;13.226;2023-11-21T13:23:22;0.68;;;0.40;;
64208;SDS011;50527;52.414;13.226;2023-11-21T13:25:48;3.20;;;0.80;;
64208;SDS011;50527;52.414;13.226;2023-11-21T13:28:14;1.23;;;0.73;;
64208;SDS011;50527;52.414;13.226;2023-11-21T13:30:47;3.47;;;0.70;;
64208;SDS011;50527;52.414;13.226;2023-11-21T13:33:13;1.73;;;0.80;;
64208;SDS011;50527;52.414;13.226;2023-11-21T13:35:42;1.70;;;0.70;;
64208;SDS011;50527;52.414;13.226;2023-11-21T13:38:14;1.52;;;0.65;;
64208;SDS011;50527;52.414;13.226;2023-11-21T13:40:47;1.80;;;0.60;;
64208;SDS011;50527;52.414;13.226;2023-11-21T13:43:20;1.95;;;0.73;;
64208;SDS011;50527;52.414;13.226;2023-11-21T13:45:49;2.03;;;1.00;;
64208;SDS011;50527;52.414;13.226;2023-11-21T13:48:26;2.67;;;1.20;;
64208;SDS011;50527;52.414;13.226;2023-11-21T13:51:07;2.78;;;1.00;;
64208;SDS011;50527;52.414;13.226;2023-11-21T13:53:41;2.67;;;1.02;;
64208;SDS011;50527;52.414;13.226;2023-11-21T13:56:10;3.72;;;1.10;;
64208;SDS011;50527;52.414;13.226;2023-11-21T13:58:36;3.75;;;1.50;;
64208;SDS011;50527;52.414;13.226;2023-11-21T14:01:11;3.05;;;1.17;;
64208;SDS011;50527;52.414;13.226;2023-11-21T14:04:01;5.35;;;1.35;;
64208;SDS011;50527;52.414;13.226;2023-11-21T14:09:16;2.42;;;0.90;;
64208;SDS011;50527;52.414;13.226;2023-11-21T14:11:53;3.38;;;1.20;;
64208;SDS011;50527;52.414;13.226;2023-11-21T14:14:24;4.00;;;1.52;;
64208;SDS011;50527;52.414;13.226;2023-11-21T14:16:51;4.10;;;1.70;;
64208;SDS011;50527;52.414;13.226;2023-11-21T14:19:17;5.88;;;1.75;;
64208;SDS011;50527;52.414;13.226;2023-11-21T14:21:46;3.80;;;1.77;;
64208;SDS011;50527;52.414;13.226;2023-11-21T14:24:14;5.68;;;1.95;;
64208;SDS011;50527;52.414;13.226;2023-11-21T14:26:42;8.20;;;1.83;;
64208;SDS011;50527;52.414;13.226;2023-11-21T14:29:10;7.60;;;2.08;;
64208;SDS011;50527;52.414;13.226;2023-11-21T14:31:39;10.63;;;2.60;;
64208;SDS011;50527;52.414;13.226;2023-11-21T14:34:08;10.73;;;2.83;;
64208;SDS011;50527;52.414;13.226;2023-11-21T14:36:34;8.80;;;2.67;;
64208;SDS011;50527;52.414;13.226;2023-11-21T14:39:01;8.43;;;2.67;;
64208;SDS011;50527;52.414;13.226;2023-11-21T14:41:28;13.35;;;3.45;;
64208;SDS011;50527;52.414;13.226;2023-11-21T14:43:54;9.20;;;3.38;;
64208;SDS011;50527;52.414;13.226;2023-11-21T14:46:22;10.85;;;2.85;;
64208;SDS011;50527;52.414;13.226;2023-11-21T14:48:47;9.20;;;2.13;;
64208;SDS011;50527;52.414;13.226;2023-11-21T14:51:23;7.95;;;2.53;;
64208;SDS011;50527;52.414;13.226;2023-11-21T14:53:58;7.38;;;2.42;;